createdAt,value
2023-02-11T00:01:35.141Z,95.32
2023-02-11T00:04:05.265Z,95.02
2023-02-11T00:06:35.135Z,93.93
2023-02-11T00:09:04.111Z,94.57
2023-02-11T00:11:32.526Z,94.75
2023-02-11T00:14:03.690Z,94.23
2023-02-11T00:16:33.290Z,94.00
2023-02-11T00:19:02.813Z,93.93
2023-02-11T00:21:31.434Z,93.48
2023-02-11T00:24:01.064Z,93.17
2023-02-11T00:26:35.697Z,91.66
2023-02-11T00:29:06.178Z,91.00
2023-02-11T00:31:35.116Z,91.20
2023-02-11T00:34:03.972Z,91.42
2023-02-11T00:36:32.568Z,91.64
2023-02-11T00:39:01.724Z,91.73
2023-02-11T00:41:30.621Z,91.94
2023-02-11T00:43:58.926Z,91.25
2023-02-11T00:46:27.443Z,92.00
2023-02-11T00:48:58.818Z,91.40
2023-02-11T00:51:29.411Z,91.73
2023-02-11T00:53:57.914Z,90.97
2023-02-11T00:56:26.269Z,91.19
2023-02-11T00:58:54.971Z,90.43
2023-02-11T01:01:23.324Z,89.68
2023-02-11T01:03:51.812Z,90.42
2023-02-11T01:06:20.458Z,90.65
2023-02-11T01:08:48.743Z,90.87
2023-02-11T01:11:20.199Z,90.54
2023-02-11T01:13:50.197Z,90.55
2023-02-11T01:16:19.861Z,89.84
2023-02-11T01:18:48.526Z,89.49
2023-02-11T01:21:17.123Z,90.23
2023-02-11T01:23:45.549Z,88.56
2023-02-11T01:26:14.149Z,87.44
2023-02-11T01:28:42.519Z,87.67
2023-02-11T01:31:10.977Z,87.29
2023-02-11T01:33:39.316Z,87.20
2023-02-11T01:36:08.814Z,87.48
2023-02-11T01:38:37.786Z,86.70
2023-02-11T01:41:10.327Z,85.58
2023-02-11T01:43:41.703Z,84.97
2023-02-11T01:46:21.800Z,84.07
2023-02-11T01:48:56.730Z,83.80
2023-02-11T01:51:49.282Z,83.56
2023-02-11T01:54:41.039Z,83.00
2023-02-11T01:57:23.876Z,82.60
2023-02-11T02:00:16.394Z,81.61
2023-02-11T02:02:57.229Z,81.72
2023-02-11T02:05:41.439Z,81.64
2023-02-11T02:08:36.884Z,81.29
2023-02-11T02:11:05.978Z,80.77
2023-02-11T02:13:36.186Z,81.15
2023-02-11T02:16:15.952Z,79.94
2023-02-11T02:18:52.948Z,80.25
2023-02-11T02:21:37.632Z,80.61
2023-02-11T02:24:27.274Z,79.99
2023-02-11T02:27:11.302Z,79.97
2023-02-11T02:29:57.713Z,79.92
2023-02-11T02:32:33.762Z,80.28
2023-02-11T02:35:07.961Z,79.93
2023-02-11T02:37:57.874Z,78.96
2023-02-11T02:40:33.760Z,80.08
2023-02-11T02:43:04.174Z,79.87
2023-02-11T02:45:32.487Z,80.43
2023-02-11T02:48:00.781Z,80.08
2023-02-11T02:50:34.593Z,79.21
2023-02-11T02:53:21.349Z,79.46
2023-02-11T02:56:13.187Z,78.96
2023-02-11T02:58:59.794Z,78.62
2023-02-11T03:01:36.546Z,78.53
2023-02-11T03:04:52.775Z,77.38
2023-02-11T03:08:09.302Z,77.77
2023-02-11T03:10:45.081Z,77.41
2023-02-11T03:13:18.036Z,77.26
2023-02-11T03:15:52.166Z,76.72
2023-02-11T03:18:25.908Z,77.23
2023-02-11T03:20:57.560Z,76.45
2023-02-11T03:23:30.901Z,75.96
2023-02-11T03:26:19.644Z,75.16
2023-02-11T03:29:06.561Z,75.16
2023-02-11T03:32:21.468Z,74.83
2023-02-11T03:34:56.855Z,75.05
2023-02-11T03:37:40.769Z,74.43
2023-02-11T03:40:16.647Z,74.48
2023-02-11T03:42:51.479Z,75.11
2023-02-11T03:45:23.627Z,74.98
2023-02-11T03:48:24.381Z,74.87
2023-02-11T03:50:55.150Z,74.51
2023-02-11T03:53:24.176Z,73.89
2023-02-11T03:55:55.972Z,73.75
2023-02-11T03:58:24.389Z,72.35
2023-02-11T04:00:52.920Z,72.85
2023-02-11T04:03:21.311Z,71.86
2023-02-11T04:05:49.823Z,73.44
2023-02-11T04:08:18.369Z,73.57
2023-02-11T04:10:46.691Z,71.18
2023-02-11T04:13:15.270Z,71.32
2023-02-11T04:15:43.588Z,70.36
2023-02-11T04:18:11.917Z,70.56
2023-02-11T04:20:40.237Z,70.81
2023-02-11T04:23:08.585Z,69.96
2023-02-11T04:25:37.097Z,69.71
2023-02-11T04:28:05.517Z,68.29
2023-02-11T04:30:33.856Z,69.53
2023-02-11T04:33:02.181Z,69.41
2023-02-11T04:35:30.524Z,67.09
2023-02-11T04:37:58.923Z,68.70
2023-02-11T04:40:27.222Z,69.06
2023-02-11T04:42:55.647Z,68.01
2023-02-11T04:45:24.011Z,67.35
2023-02-11T04:47:52.634Z,66.36
2023-02-11T04:50:21.048Z,66.68
2023-02-11T04:52:49.352Z,64.93
2023-02-11T04:55:17.725Z,65.27
2023-02-11T04:57:45.989Z,66.16
2023-02-11T05:00:14.873Z,63.67
2023-02-11T05:02:43.248Z,64.49
2023-02-11T05:05:11.532Z,63.74
2023-02-11T05:07:39.856Z,65.30
2023-02-11T05:10:08.208Z,60.99
2023-02-11T05:12:36.516Z,63.50
2023-02-11T05:15:05.149Z,61.78
2023-02-11T05:17:33.426Z,63.41
2023-02-11T05:20:01.744Z,62.49
2023-02-11T05:22:30.018Z,61.66
2023-02-11T05:24:58.312Z,60.66
2023-02-11T05:27:26.690Z,60.71
2023-02-11T05:29:55.024Z,61.97
2023-02-11T05:32:23.344Z,60.21
2023-02-11T05:34:51.639Z,62.91
2023-02-11T05:37:19.979Z,60.93
2023-02-11T05:39:48.430Z,60.91
2023-02-11T05:42:16.993Z,59.69
2023-02-11T05:44:50.253Z,60.32
2023-02-11T05:47:19.030Z,61.00
2023-02-11T05:49:47.311Z,60.29
2023-02-11T05:52:15.726Z,59.69
2023-02-11T05:54:44.136Z,57.88
2023-02-11T05:57:12.754Z,61.39
2023-02-11T05:59:41.310Z,60.40
2023-02-11T06:02:10.516Z,59.58
2023-02-11T06:04:39.354Z,58.85
2023-02-11T06:07:07.688Z,61.81
2023-02-11T06:09:35.992Z,61.43
2023-02-11T06:12:04.353Z,58.30
2023-02-11T06:14:35.129Z,57.91
2023-02-11T06:17:03.494Z,59.11
2023-02-11T06:19:32.205Z,61.04
2023-02-11T06:22:00.622Z,58.54
2023-02-11T06:24:54.669Z,59.12
2023-02-11T06:27:18.360Z,58.59
2023-02-11T06:29:47.466Z,58.94
2023-02-11T06:32:37.007Z,55.80
2023-02-11T06:35:04.208Z,57.57
2023-02-11T06:37:32.754Z,57.55
2023-02-11T06:40:01.081Z,56.97
2023-02-11T06:42:29.383Z,58.26
2023-02-11T06:44:57.837Z,56.93
2023-02-11T06:47:26.145Z,55.65
2023-02-11T06:49:54.468Z,56.51
2023-02-11T06:52:22.830Z,57.34
2023-02-11T06:54:51.146Z,55.69
2023-02-11T06:57:19.554Z,56.71
2023-02-11T06:59:47.863Z,56.52
2023-02-11T07:02:17.924Z,53.42
2023-02-11T07:04:47.438Z,52.61
2023-02-11T07:07:15.761Z,54.59
2023-02-11T07:09:44.098Z,55.57
2023-02-11T07:12:13.176Z,52.15
2023-02-11T07:14:42.336Z,52.29
2023-02-11T07:17:10.630Z,54.06
2023-02-11T07:19:38.938Z,50.81
2023-02-11T07:22:07.227Z,51.61
2023-02-11T07:24:35.543Z,53.33
2023-02-11T07:27:03.858Z,53.68
2023-02-11T07:29:32.205Z,52.43
2023-02-11T07:32:00.697Z,51.21
2023-02-11T07:34:29.132Z,50.65
2023-02-11T07:36:57.493Z,52.24
2023-02-11T07:39:28.256Z,51.56
2023-02-11T07:41:56.640Z,49.36
2023-02-11T07:44:25.167Z,50.16
2023-02-11T07:46:53.964Z,52.95
2023-02-11T07:49:22.360Z,52.04
2023-02-11T07:51:52.200Z,51.37
2023-02-11T07:54:20.511Z,52.21
2023-02-11T07:56:48.843Z,50.92
2023-02-11T07:59:23.157Z,52.58
2023-02-11T08:02:06.823Z,49.91
2023-02-11T08:04:35.271Z,49.24
2023-02-11T08:07:03.546Z,50.03
2023-02-11T08:09:34.345Z,49.48
2023-02-11T08:12:02.993Z,48.75
2023-02-11T08:14:33.679Z,51.20
2023-02-11T08:17:02.117Z,50.68
2023-02-11T08:19:30.450Z,50.51
2023-02-11T08:22:00.694Z,53.81
2023-02-11T08:24:29.078Z,49.64
2023-02-11T08:27:00.480Z,50.54
2023-02-11T08:32:12.341Z,48.71
2023-02-11T08:34:40.733Z,49.51
2023-02-11T08:37:09.948Z,50.95
2023-02-11T08:39:38.271Z,52.77
2023-02-11T08:42:06.639Z,51.92
2023-02-11T08:44:34.950Z,50.66
2023-02-11T08:47:03.215Z,47.92
2023-02-11T08:49:32.475Z,49.37
2023-02-11T08:52:04.808Z,48.51
2023-02-11T08:54:33.422Z,51.99
2023-02-11T08:57:02.898Z,49.11
2023-02-11T08:59:31.913Z,52.05
2023-02-11T09:02:00.258Z,50.23
2023-02-11T09:04:28.600Z,52.35
2023-02-11T09:06:56.902Z,53.10
2023-02-11T09:09:25.277Z,51.73
2023-02-11T09:11:58.088Z,51.41
2023-02-11T09:14:26.413Z,50.14
2023-02-11T09:16:55.351Z,51.24
2023-02-11T09:19:24.132Z,49.48
2023-02-11T09:21:52.603Z,49.91
2023-02-11T09:24:20.980Z,52.26
2023-02-11T09:26:50.505Z,51.00
2023-02-11T09:29:18.817Z,50.57
2023-02-11T09:31:47.584Z,52.46
2023-02-11T09:34:16.865Z,53.92
2023-02-11T09:36:45.329Z,51.19
2023-02-11T09:39:20.576Z,51.17
2023-02-11T09:42:03.757Z,52.53
2023-02-11T09:44:37.483Z,53.54
2023-02-11T09:47:16.900Z,55.59
2023-02-11T09:50:16.304Z,55.61
2023-02-11T09:53:02.890Z,56.87
2023-02-11T09:55:58.589Z,56.35
2023-02-11T09:58:29.484Z,55.65
2023-02-11T10:01:09.867Z,53.40
2023-02-11T10:03:53.476Z,54.17
2023-02-11T10:06:46.551Z,55.72
2023-02-11T10:09:17.924Z,55.41
2023-02-11T10:11:58.119Z,56.11
2023-02-11T10:15:00.400Z,54.23
2023-02-11T10:18:03.179Z,56.01
2023-02-11T10:21:02.287Z,56.41
2023-02-11T10:23:38.847Z,54.04
2023-02-11T10:26:15.022Z,53.54
2023-02-11T10:28:47.243Z,54.20
2023-02-11T10:31:21.778Z,55.76
2023-02-11T10:34:01.934Z,54.18
2023-02-11T10:36:36.947Z,54.42
2023-02-11T10:39:15.688Z,54.96
2023-02-11T10:41:53.564Z,55.83
2023-02-11T10:45:04.963Z,56.52
2023-02-11T10:47:39.640Z,55.43
2023-02-11T10:50:27.065Z,56.72
2023-02-11T10:53:12.492Z,56.48
2023-02-11T10:55:49.955Z,55.35
2023-02-11T10:58:48.835Z,58.10
2023-02-11T11:01:24.435Z,58.15
2023-02-11T11:03:54.429Z,58.34
2023-02-11T11:06:36.299Z,59.61
2023-02-11T11:09:05.700Z,59.14
2023-02-11T11:11:33.993Z,58.83
2023-02-11T11:14:04.180Z,57.88
2023-02-11T11:16:37.213Z,59.84
2023-02-11T11:19:08.331Z,58.67
2023-02-11T11:21:45.531Z,60.23
2023-02-11T11:24:21.956Z,59.02
2023-02-11T11:26:56.350Z,59.28
2023-02-11T11:29:29.663Z,59.87
2023-02-11T11:32:14.008Z,61.87
2023-02-11T11:34:49.609Z,62.09
2023-02-11T11:37:32.924Z,61.52
2023-02-11T11:40:10.104Z,61.27
2023-02-11T11:42:40.840Z,61.09
2023-02-11T11:45:33.935Z,63.06
2023-02-11T11:48:11.124Z,62.80
2023-02-11T11:50:54.548Z,63.47
2023-02-11T11:53:47.143Z,63.72
2023-02-11T11:56:44.080Z,63.32
2023-02-11T11:59:17.359Z,63.62
2023-02-11T12:02:03.260Z,64.02
2023-02-11T12:04:49.751Z,64.80
2023-02-11T12:07:39.870Z,65.32
2023-02-11T12:10:43.163Z,65.04
2023-02-11T12:13:33.037Z,65.06
2023-02-11T12:16:19.879Z,65.11
2023-02-11T12:19:15.848Z,65.77
2023-02-11T12:22:10.818Z,65.69
2023-02-11T12:24:47.537Z,66.80
2023-02-11T12:27:24.917Z,66.41
2023-02-11T12:30:17.514Z,67.27
2023-02-11T12:33:00.511Z,67.78
2023-02-11T12:35:55.871Z,68.67
2023-02-11T12:39:08.676Z,69.38
2023-02-11T12:42:33.348Z,69.79
2023-02-11T12:45:13.736Z,69.83
2023-02-11T12:48:09.433Z,70.39
2023-02-11T12:51:01.016Z,70.29
2023-02-11T12:53:47.550Z,71.48
2023-02-11T12:56:21.614Z,71.79
2023-02-11T12:58:54.444Z,71.79
2023-02-11T13:01:26.038Z,71.50
2023-02-11T13:04:44.846Z,71.48
2023-02-11T13:07:38.114Z,71.71
2023-02-11T13:10:27.079Z,71.85
2023-02-11T13:13:16.375Z,72.48
2023-02-11T13:15:50.409Z,73.15
2023-02-11T13:18:45.014Z,74.31
2023-02-11T13:21:16.477Z,75.46
2023-02-11T13:24:07.609Z,76.87
2023-02-11T13:26:43.363Z,76.88
2023-02-11T13:29:33.618Z,77.52
2023-02-11T13:32:12.182Z,77.36
2023-02-11T13:34:43.598Z,77.36
2023-02-11T13:37:28.503Z,75.83
2023-02-11T13:40:20.946Z,76.03
2023-02-11T13:42:53.816Z,75.79
2023-02-11T13:45:34.644Z,76.00
2023-02-11T13:48:09.296Z,75.62
2023-02-11T13:50:49.779Z,75.50
2023-02-11T13:53:19.583Z,75.40
2023-02-11T13:58:32.713Z,74.67
2023-02-11T14:01:01.074Z,74.40
2023-02-11T14:03:50.780Z,74.26
2023-02-11T14:06:40.655Z,74.17
2023-02-11T14:09:36.607Z,74.26
2023-02-11T14:12:32.244Z,74.04
2023-02-11T14:15:22.648Z,74.60
2023-02-11T14:17:51.066Z,73.73
2023-02-11T14:20:44.014Z,74.06
2023-02-11T14:23:26.631Z,73.95
2023-02-11T14:26:21.057Z,74.20
2023-02-11T14:29:15.097Z,74.15
2023-02-11T14:31:45.849Z,74.70
2023-02-11T14:34:37.544Z,75.69
2023-02-11T14:37:18.234Z,76.71
2023-02-11T14:40:31.318Z,76.94
2023-02-11T14:43:07.507Z,77.16
2023-02-11T14:45:38.122Z,77.38
2023-02-11T14:48:16.056Z,78.76
2023-02-11T14:50:50.003Z,78.56
2023-02-11T14:53:26.819Z,78.95
2023-02-11T14:55:56.825Z,79.00
2023-02-11T14:58:31.062Z,78.95
2023-02-11T15:01:09.991Z,79.53
2023-02-11T15:03:41.738Z,79.90
2023-02-11T15:06:35.396Z,80.32
2023-02-11T15:09:30.320Z,81.30
2023-02-11T15:11:59.861Z,80.91
2023-02-11T15:14:34.403Z,80.73
2023-02-11T15:17:05.836Z,80.48
2023-02-11T15:19:36.876Z,80.29
2023-02-11T15:22:23.054Z,80.34
2023-02-11T15:25:15.858Z,79.99
2023-02-11T15:27:46.538Z,80.28
2023-02-11T15:30:24.115Z,80.22
2023-02-11T15:33:01.133Z,79.62
2023-02-11T15:35:33.490Z,79.50
2023-02-11T15:38:02.401Z,79.17
2023-02-11T15:40:34.351Z,79.12
2023-02-11T15:43:08.572Z,79.39
2023-02-11T15:46:01.715Z,80.17
2023-02-11T15:48:42.728Z,79.40
2023-02-11T15:51:24.046Z,78.37
2023-02-11T15:53:57.983Z,77.31
2023-02-11T15:56:26.501Z,77.40
2023-02-11T15:59:00.816Z,77.52
2023-02-11T16:01:33.871Z,76.88
2023-02-11T16:04:03.852Z,77.84
2023-02-11T16:06:43.305Z,77.72
2023-02-11T16:09:12.054Z,78.67
2023-02-11T16:11:49.260Z,78.75
2023-02-11T16:14:28.885Z,79.88
2023-02-11T16:16:57.119Z,79.56
2023-02-11T16:19:28.307Z,77.22
2023-02-11T16:21:58.753Z,77.62
2023-02-11T16:24:34.621Z,77.09
2023-02-11T16:27:05.825Z,77.15
2023-02-11T16:29:37.876Z,78.19
2023-02-11T16:32:27.097Z,78.16
2023-02-11T16:34:58.827Z,78.42
2023-02-11T16:37:27.378Z,78.62
2023-02-11T16:39:59.161Z,78.77
2023-02-11T16:42:27.527Z,79.75
2023-02-11T16:44:55.992Z,80.27
2023-02-11T16:47:29.819Z,80.42
2023-02-11T16:50:00.208Z,77.98
2023-02-11T16:52:28.836Z,78.46
2023-02-11T16:54:57.120Z,80.11
2023-02-11T16:57:29.886Z,80.18
2023-02-11T17:00:00.106Z,80.35
2023-02-11T17:02:31.589Z,80.48
2023-02-11T17:05:02.704Z,80.82
2023-02-11T17:07:31.613Z,81.30
2023-02-11T17:10:00.213Z,81.15
2023-02-11T17:12:28.626Z,81.55
2023-02-11T17:14:56.903Z,81.54
2023-02-11T17:17:25.267Z,81.39
2023-02-11T17:19:53.539Z,82.13
2023-02-11T17:22:21.867Z,81.93
2023-02-11T17:24:50.446Z,82.01
2023-02-11T17:27:18.751Z,82.21
2023-02-11T17:29:47.050Z,81.87
2023-02-11T17:32:15.389Z,81.83
2023-02-11T17:34:43.775Z,81.66
2023-02-11T17:37:12.040Z,81.83
2023-02-11T17:39:41.366Z,81.52
2023-02-11T17:42:09.896Z,82.19
2023-02-11T17:44:38.703Z,82.42
2023-02-11T17:47:07.072Z,82.66
2023-02-11T17:49:35.386Z,82.19
2023-02-11T17:52:03.863Z,82.50
2023-02-11T17:54:32.178Z,82.71
2023-02-11T17:57:00.475Z,82.98
2023-02-11T17:59:32.582Z,82.04
2023-02-11T18:02:01.075Z,83.63
2023-02-11T18:04:29.546Z,83.04
2023-02-11T18:06:58.681Z,82.91
2023-02-11T18:09:27.581Z,82.42
2023-02-11T18:11:56.512Z,82.90
2023-02-11T18:14:25.124Z,82.06
2023-02-11T18:16:54.729Z,83.56
2023-02-11T18:19:24.074Z,83.75
2023-02-11T18:21:52.587Z,83.73
2023-02-11T18:24:20.932Z,84.03
2023-02-11T18:26:49.184Z,83.55
2023-02-11T18:29:17.484Z,83.74
2023-02-11T18:31:45.806Z,83.39
2023-02-11T18:34:14.279Z,84.83
2023-02-11T18:36:42.574Z,85.38
2023-02-11T18:39:10.892Z,85.35
2023-02-11T18:41:40.973Z,85.35
2023-02-11T18:44:09.371Z,84.87
2023-02-11T18:46:37.713Z,85.02
2023-02-11T18:49:06.007Z,83.04
2023-02-11T18:51:34.315Z,83.95
2023-02-11T18:54:02.666Z,84.04
2023-02-11T18:56:31.009Z,84.14
2023-02-11T18:59:02.015Z,84.67
2023-02-11T19:01:32.122Z,84.72
2023-02-11T19:04:05.991Z,85.44
2023-02-11T19:06:38.879Z,85.07
2023-02-11T19:09:11.246Z,84.97
2023-02-11T19:11:55.117Z,85.81
2023-02-11T19:14:26.808Z,86.22
2023-02-11T19:16:58.461Z,85.82
2023-02-11T19:19:29.565Z,86.43
2023-02-11T19:21:59.379Z,85.78
2023-02-11T19:24:29.085Z,85.35
2023-02-11T19:27:00.037Z,85.59
2023-02-11T19:29:29.500Z,85.62
2023-02-11T19:31:57.934Z,85.83
2023-02-11T19:34:26.657Z,86.15
2023-02-11T19:36:55.341Z,86.62
2023-02-11T19:39:25.713Z,86.95
2023-02-11T19:41:54.637Z,87.72
2023-02-11T19:44:22.927Z,88.34
2023-02-11T19:46:53.736Z,88.76
2023-02-11T19:49:27.242Z,88.93
2023-02-11T19:51:58.368Z,89.23
2023-02-11T19:54:29.955Z,89.49
2023-02-11T19:56:59.777Z,89.17
2023-02-11T19:59:28.118Z,89.61
2023-02-11T20:01:56.605Z,88.85
2023-02-11T20:04:26.042Z,88.60
2023-02-11T20:06:54.326Z,89.17
2023-02-11T20:09:23.681Z,89.53
2023-02-11T20:11:51.987Z,88.86
2023-02-11T20:14:20.367Z,86.06
2023-02-11T20:16:50.019Z,87.41
2023-02-11T20:19:22.237Z,88.32
2023-02-11T20:21:53.724Z,89.39
2023-02-11T20:24:22.796Z,89.63
2023-02-11T20:26:52.780Z,90.15
2023-02-11T20:29:21.536Z,89.68
2023-02-11T20:31:51.336Z,90.25
2023-02-11T20:34:19.939Z,91.22
2023-02-11T20:36:52.547Z,91.10
2023-02-11T20:39:23.156Z,91.26
2023-02-11T20:41:53.278Z,91.49
2023-02-11T20:44:25.046Z,91.49
2023-02-11T20:46:54.973Z,90.15
2023-02-11T20:49:25.938Z,90.20
2023-02-11T20:51:54.676Z,89.02
2023-02-11T20:54:24.440Z,90.14
2023-02-11T20:56:54.559Z,90.10
2023-02-11T20:59:23.623Z,90.51
2023-02-11T21:01:56.093Z,90.17
2023-02-11T21:04:27.734Z,90.43
2023-02-11T21:06:59.704Z,90.36
2023-02-11T21:09:32.543Z,90.43
2023-02-11T21:12:01.737Z,90.46
2023-02-11T21:14:30.924Z,90.90
2023-02-11T21:16:59.577Z,91.57
2023-02-11T21:19:28.187Z,91.82
2023-02-11T21:21:58.181Z,91.99
2023-02-11T21:24:26.561Z,92.67
2023-02-11T21:26:54.982Z,93.12
2023-02-11T21:29:23.641Z,93.74
2023-02-11T21:31:52.492Z,93.39
2023-02-11T21:34:21.639Z,92.58
2023-02-11T21:36:52.013Z,92.56
2023-02-11T21:39:21.193Z,93.50
2023-02-11T21:41:49.682Z,93.19
2023-02-11T21:44:17.968Z,93.16
2023-02-11T21:46:47.095Z,93.09
2023-02-11T21:49:15.478Z,91.96
2023-02-11T21:51:43.822Z,92.75
2023-02-11T21:54:12.839Z,93.91
2023-02-11T21:56:41.590Z,94.10
2023-02-11T21:59:15.033Z,94.32
2023-02-11T22:01:43.355Z,94.40
2023-02-11T22:04:11.739Z,94.52
2023-02-11T22:06:40.766Z,94.44
2023-02-11T22:09:11.986Z,94.38
2023-02-11T22:11:40.779Z,93.80
2023-02-11T22:14:09.305Z,93.09
2023-02-11T22:16:37.869Z,93.04
2023-02-11T22:19:08.324Z,92.46
2023-02-11T22:21:36.918Z,92.23
2023-02-11T22:24:05.426Z,92.73
2023-02-11T22:26:34.095Z,92.50
2023-02-11T22:29:02.442Z,92.57
2023-02-11T22:31:33.816Z,92.64
2023-02-11T22:34:03.327Z,92.46
2023-02-11T22:36:34.641Z,92.36
2023-02-11T22:39:11.949Z,92.85
2023-02-11T22:41:42.663Z,92.38
2023-02-11T22:44:11.968Z,93.12
2023-02-11T22:46:41.174Z,92.87
2023-02-11T22:49:10.057Z,93.01
2023-02-11T22:51:40.309Z,93.03
2023-02-11T22:54:14.286Z,93.03
2023-02-11T22:56:43.177Z,93.00
2023-02-11T22:59:16.322Z,93.02
2023-02-11T23:01:45.643Z,93.75
2023-02-11T23:04:16.615Z,93.26
2023-02-11T23:06:45.060Z,93.02
2023-02-11T23:09:13.356Z,93.58
2023-02-11T23:11:42.468Z,93.96
2023-02-11T23:14:12.971Z,93.56
2023-02-11T23:16:41.434Z,93.25
2023-02-11T23:19:10.453Z,93.40
2023-02-11T23:21:40.133Z,93.44
2023-02-11T23:24:12.593Z,93.63
2023-02-11T23:26:42.607Z,92.90
2023-02-11T23:29:11.953Z,92.99
2023-02-11T23:31:44.286Z,93.09
2023-02-11T23:34:12.832Z,93.07
2023-02-11T23:36:41.130Z,93.13
2023-02-11T23:39:09.419Z,93.09
2023-02-11T23:44:05.762Z,92.92
2023-02-11T23:46:34.074Z,93.15
2023-02-11T23:49:02.397Z,92.47
2023-02-11T23:51:30.726Z,92.35
2023-02-11T23:53:59.072Z,92.51
2023-02-11T23:56:29.237Z,92.76
2023-02-11T23:58:59.589Z,92.20
